Time;durP1;ratioP1;P1;durP2;ratioP2;P2;SDS_P1;SDS_P2;PMS_P1;PMS_P2;Temp;Humidity;BMP_temperature;BMP_pressure;BME280_temperature;BME280_humidity;BME280_pressure;Samples;Min_cycle;Max_cycle;Signal;HPM_P1;HPM_P2
2023/01/19 00:01:24;;;;;;;0.30;0.30;;;11.90;65.20;;;;;;4909646;29;20024;-88
2023/01/19 00:07:11;;;;;;;0.30;0.30;;;11.90;65.50;;;;;;4921380;29;20047;-89
2023/01/19 00:15:42;;;;;;;0.20;0.20;;;12.30;64.00;;;;;;5645154;24;20039;-87
2023/01/19 00:18:08;;;;;;;0.22;0.22;;;12.20;63.30;;;;;;4900293;29;20042;-89
2023/01/19 00:20:41;;;;;;;0.20;0.20;;;11.80;64.40;;;;;;4902403;29;20383;-88
2023/01/19 00:25:42;;;;;;;0.30;0.30;;;11.70;65.50;;;;;;4942037;23;20044;-87
2023/01/19 00:28:09;;;;;;;0.30;0.30;;;12.20;64.30;;;;;;5103057;23;20055;-88
2023/01/19 00:33:17;;;;;;;0.20;0.20;;;12.60;62.50;;;;;;5504810;23;20056;-86
2023/01/19 00:40:53;;;;;;;0.30;0.30;;;11.80;64.70;;;;;;5863274;23;20343;-90
2023/01/19 00:50:31;;;;;;;0.20;0.20;;;11.80;64.40;;;;;;5205989;24;20070;-90
2023/01/19 00:58:01;;;;;;;0.22;0.22;;;11.40;65.70;;;;;;5839727;23;20024;-89
2023/01/19 01:09:55;;;;;;;0.30;0.30;;;11.10;67.40;;;;;;4899524;29;20158;-89
2023/01/19 01:15:04;;;;;;;0.30;0.30;;;11.20;66.00;;;;;;5672786;23;20040;-89
2023/01/19 01:23:54;;;;;;;0.30;0.30;;;11.50;65.20;;;;;;5462028;24;20495;-88
2023/01/19 01:27:06;;;;;;;0.30;0.30;;;11.60;63.90;;;;;;4898195;29;20067;-88
2023/01/19 01:40:04;;;;;;;0.35;0.35;;;10.10;67.10;;;;;;5371515;23;20083;-90
2023/01/19 01:51:28;;;;;;;0.25;0.25;;;11.10;64.50;;;;;;4954181;23;20117;-94
2023/01/19 01:56:48;;;;;;;0.30;0.30;;;11.50;63.60;;;;;;5426206;23;20055;-90
2023/01/19 02:05:33;;;;;;;0.25;0.25;;;11.80;62.20;;;;;;5959082;23;20036;-87
2023/01/19 02:14:33;;;;;;;0.22;0.22;;;11.50;63.20;;;;;;4859136;29;20054;-90
2023/01/19 02:40:23;;;;;;;0.30;0.30;;;11.50;61.90;;;;;;4921064;24;20177;-89
2023/01/19 02:49:57;;;;;;;0.20;0.20;;;11.10;63.40;;;;;;5075444;23;20023;-90
2023/01/19 02:52:32;;;;;;;0.30;0.30;;;11.50;61.90;;;;;;4885472;29;20380;-88
2023/01/19 02:55:21;;;;;;;0.30;0.30;;;11.60;61.80;;;;;;4867170;29;20041;-87
2023/01/19 03:07:35;;;;;;;0.20;0.20;;;10.70;63.60;;;;;;4921225;29;20043;-87
2023/01/19 03:23:01;;;;;;;0.20;0.20;;;11.40;61.70;;;;;;4913787;29;20043;-87
2023/01/19 03:49:11;;;;;;;0.38;0.38;;;10.80;62.50;;;;;;4911937;29;20038;-88
2023/01/19 03:51:49;;;;;;;0.20;0.20;;;11.00;63.10;;;;;;4906486;29;20380;-87
2023/01/19 03:57:41;;;;;;;0.30;0.30;;;10.60;64.30;;;;;;4911513;29;20044;-95
2023/01/19 04:00:11;;;;;;;0.30;0.30;;;10.80;63.10;;;;;;4886481;29;20035;-87
2023/01/19 04:06:03;;;;;;;0.25;0.25;;;11.30;62.90;;;;;;4887794;29;20263;-93
2023/01/19 04:20:14;;;;;;;0.30;0.30;;;11.80;61.90;;;;;;5248313;24;20077;31
2023/01/19 04:22:41;;;;;;;0.20;0.20;;;11.90;61.40;;;;;;4808102;29;20051;-86
2023/01/19 04:31:35;;;;;;;0.22;0.22;;;11.20;61.80;;;;;;5677623;24;20016;-87
2023/01/19 04:34:42;;;;;;;0.22;0.22;;;11.00;62.80;;;;;;4907924;29;20020;-90
2023/01/19 04:37:07;;;;;;;0.20;0.20;;;11.30;62.50;;;;;;4919679;29;20125;-80
2023/01/19 04:39:39;;;;;;;0.20;0.20;;;11.20;61.70;;;;;;4905869;29;20036;-86
2023/01/19 04:46:03;;;;;;;0.30;0.30;;;11.00;62.60;;;;;;4921326;29;20048;-84
2023/01/19 04:49:19;;;;;;;0.30;0.30;;;10.90;62.90;;;;;;4918019;29;20492;-86
2023/01/19 05:04:07;;;;;;;0.30;0.30;;;11.50;61.30;;;;;;5970754;24;21048;-87
2023/01/19 05:06:33;;;;;;;0.30;0.30;;;11.20;62.10;;;;;;4825822;29;20094;-88
2023/01/19 05:12:52;;;;;;;0.30;0.30;;;11.20;62.60;;;;;;4843055;29;20046;-90
2023/01/19 05:15:18;;;;;;;0.30;0.30;;;11.40;61.80;;;;;;4844008;29;20038;-87
2023/01/19 05:17:44;;;;;;;0.22;0.22;;;11.40;61.50;;;;;;4828442;29;20086;-86
2023/01/19 05:20:24;;;;;;;0.30;0.30;;;11.20;62.20;;;;;;4824814;29;20041;-94
2023/01/19 05:22:51;;;;;;;0.30;0.30;;;11.00;62.60;;;;;;4844952;29;20029;-90
2023/01/19 05:31:26;;;;;;;0.30;0.30;;;11.10;63.00;;;;;;4844087;29;20041;-91
2023/01/19 05:43:06;;;;;;;0.30;0.30;;;11.90;60.70;;;;;;4920147;29;20049;-86
2023/01/19 05:46:22;;;;;;;0.30;0.30;;;11.90;60.80;;;;;;4901257;29;20558;-86
2023/01/19 05:48:48;;;;;;;0.30;0.30;;;11.90;60.60;;;;;;4901981;29;20066;-95
2023/01/19 05:51:22;;;;;;;0.20;0.20;;;11.40;61.60;;;;;;4901607;29;20044;-87
2023/01/19 05:53:54;;;;;;;0.20;0.20;;;11.50;61.90;;;;;;4917192;29;20088;-87
2023/01/19 05:56:20;;;;;;;0.20;0.20;;;11.60;61.90;;;;;;4902597;29;20429;-87
2023/01/19 06:05:31;;;;;;;0.22;0.22;;;11.70;61.60;;;;;;4898586;29;20071;-96
2023/01/19 06:18:05;;;;;;;0.35;0.35;;;11.50;62.30;;;;;;4890287;29;20135;-88
2023/01/19 06:20:31;;;;;;;0.30;0.30;;;11.60;62.30;;;;;;4898914;29;20056;-90
2023/01/19 06:22:57;;;;;;;0.20;0.20;;;11.80;61.70;;;;;;4897669;29;20055;-88
2023/01/19 06:25:24;;;;;;;0.22;0.22;;;11.80;61.90;;;;;;4893817;29;20036;-88
2023/01/19 06:28:14;;;;;;;0.30;0.30;;;11.70;62.00;;;;;;4887580;29;20476;-85
2023/01/19 06:30:52;;;;;;;0.20;0.20;;;11.80;61.70;;;;;;4902641;29;20032;-94
2023/01/19 06:33:19;;;;;;;0.30;0.30;;;11.80;61.60;;;;;;4869839;29;20033;-85
2023/01/19 06:35:46;;;;;;;0.30;0.30;;;11.50;62.90;;;;;;4889055;29;20021;-94
2023/01/19 06:38:13;;;;;;;0.30;0.30;;;11.40;63.00;;;;;;4909706;29;20037;-87
2023/01/19 06:40:40;;;;;;;0.30;0.30;;;11.30;63.70;;;;;;4884814;29;20055;-94
2023/01/19 06:53:54;;;;;;;0.20;0.20;;;11.30;63.60;;;;;;4933811;29;20391;-84
2023/01/19 06:56:19;;;;;;;0.30;0.30;;;11.50;62.70;;;;;;4894240;29;20441;-86
2023/01/19 07:05:34;;;;;;;0.30;0.30;;;11.70;62.40;;;;;;5577248;23;20048;-83
2023/01/19 07:08:06;;;;;;;0.20;0.20;;;11.70;62.40;;;;;;4883716;29;20056;-83
2023/01/19 07:13:29;;;;;;;0.20;0.20;;;11.20;63.70;;;;;;5498426;23;20047;-86
2023/01/19 07:15:54;;;;;;;0.30;0.30;;;11.30;63.80;;;;;;4918588;29;20064;-85
2023/01/19 07:18:20;;;;;;;0.20;0.20;;;11.60;63.30;;;;;;4915694;29;20110;-84
2023/01/19 07:20:48;;;;;;;0.20;0.20;;;11.70;62.70;;;;;;4912060;29;20027;-86
2023/01/19 07:23:14;;;;;;;0.30;0.30;;;11.60;63.80;;;;;;4912199;29;20028;-86
2023/01/19 07:25:40;;;;;;;0.20;0.20;;;11.70;63.10;;;;;;4909475;29;20032;-85
2023/01/19 07:28:06;;;;;;;0.30;0.30;;;12.10;62.30;;;;;;4928703;29;20476;-87
2023/01/19 07:30:31;;;;;;;0.30;0.30;;;12.10;62.30;;;;;;4895347;29;20017;-85
2023/01/19 07:32:57;;;;;;;0.28;0.28;;;12.30;61.80;;;;;;4914190;29;20476;-85
2023/01/19 07:38:47;;;;;;;0.20;0.20;;;12.10;62.10;;;;;;4905691;29;20051;-93
2023/01/19 07:41:12;;;;;;;0.22;0.22;;;12.10;62.70;;;;;;4907905;29;20029;-84
2023/01/19 07:47:11;;;;;;;0.22;0.22;;;12.30;61.50;;;;;;4911097;29;20132;-96
2023/01/19 07:50:24;;;;;;;0.30;0.30;;;12.30;62.10;;;;;;4909087;29;20028;-86
2023/01/19 07:52:52;;;;;;;0.20;0.20;;;12.40;61.40;;;;;;4920215;29;20070;-90
2023/01/19 07:55:19;;;;;;;0.30;0.30;;;12.30;62.20;;;;;;4919561;29;20432;-86
2023/01/19 07:58:29;;;;;;;0.30;0.30;;;12.30;61.70;;;;;;4899949;29;20624;-86
2023/01/19 08:01:30;;;;;;;0.30;0.30;;;12.40;62.40;;;;;;4825123;29;20053;-84
2023/01/19 08:03:55;;;;;;;0.30;0.30;;;12.30;62.30;;;;;;4825240;29;20119;-86
2023/01/19 08:06:24;;;;;;;0.22;0.22;;;12.40;62.30;;;;;;4836118;29;20036;-86
2023/01/19 08:12:14;;;;;;;0.20;0.20;;;12.00;63.00;;;;;;4804707;29;20033;-91
2023/01/19 08:14:40;;;;;;;0.20;0.20;;;12.00;63.30;;;;;;4793309;29;20245;-86
2023/01/19 08:17:06;;;;;;;0.30;0.30;;;12.20;62.70;;;;;;4789104;29;20528;-87
2023/01/19 08:20:22;;;;;;;0.20;0.20;;;12.20;62.70;;;;;;4806170;29;20071;-88
2023/01/19 08:50:12;;;;;;;0.20;0.20;;;12.30;62.60;;;;;;4923076;29;20078;-86
2023/01/19 08:52:38;;;;;;;0.30;0.30;;;12.60;62.50;;;;;;4903384;29;20091;-86
2023/01/19 08:55:04;;;;;;;0.30;0.30;;;12.70;62.20;;;;;;4903030;29;20026;-91
2023/01/19 08:57:30;;;;;;;0.28;0.28;;;12.50;61.80;;;;;;4561560;29;10000717;-85
2023/01/19 08:59:55;;;;;;;0.20;0.20;;;12.40;62.30;;;;;;4885081;29;20033;-86
2023/01/19 09:05:18;;;;;;;0.30;0.30;;;12.40;62.70;;;;;;4908105;24;20048;-95
2023/01/19 09:11:14;;;;;;;0.20;0.20;;;12.70;62.20;;;;;;4902177;24;20047;-85
2023/01/19 09:13:40;;;;;;;0.20;0.20;;;12.70;61.80;;;;;;4896928;29;20148;-94
2023/01/19 09:16:13;;;;;;;0.30;0.30;;;12.60;62.30;;;;;;4884819;29;20081;-88
2023/01/19 09:31:35;;;;;;;0.20;0.20;;;13.00;61.70;;;;;;4828810;29;20073;-87
2023/01/19 09:37:36;;;;;;;0.30;0.30;;;13.00;61.70;;;;;;4829711;29;20098;-86
2023/01/19 09:43:32;;;;;;;0.20;0.20;;;12.60;62.10;;;;;;4753895;30;20067;-84
2023/01/19 10:01:38;;;;;;;0.28;0.28;;;11.80;65.10;;;;;;5603391;23;20048;-85
2023/01/19 10:16:06;;;;;;;0.20;0.20;;;12.20;63.40;;;;;;5742435;23;20048;-88
2023/01/19 10:18:46;;;;;;;0.30;0.30;;;12.20;63.50;;;;;;4901436;29;20045;-87
2023/01/19 10:21:12;;;;;;;;;;;12.20;63.10;;;;;;4905082;29;20059;-87
2023/01/19 10:23:57;;;;;;;0.20;0.20;;;12.00;63.00;;;;;;4904397;29;19950;-88
2023/01/19 10:26:32;;;;;;;0.30;0.30;;;12.00;64.00;;;;;;4903820;29;20051;-85
2023/01/19 10:29:18;;;;;;;0.20;0.20;;;12.00;63.50;;;;;;4904380;29;20467;-87
2023/01/19 10:31:45;;;;;;;0.30;0.30;;;11.60;64.50;;;;;;4902959;29;20028;-87
2023/01/19 10:34:17;;;;;;;0.20;0.20;;;11.70;65.00;;;;;;4903741;29;20020;-87
2023/01/19 10:36:44;;;;;;;0.30;0.30;;;11.90;64.50;;;;;;4904143;29;20028;-87
2023/01/19 10:39:14;;;;;;;0.32;0.32;;;11.90;63.80;;;;;;4903397;29;20028;-86
2023/01/19 10:41:41;;;;;;;;;;;12.00;64.20;;;;;;4904352;29;20345;-95
2023/01/19 10:44:09;;;;;;;0.30;0.30;;;12.10;63.80;;;;;;4903980;29;20348;-87
2023/01/19 10:46:47;;;;;;;0.20;0.20;;;12.10;63.40;;;;;;4903661;29;20050;-84
2023/01/19 10:49:36;;;;;;;0.30;0.30;;;11.90;63.40;;;;;;4904005;29;20028;-86
2023/01/19 10:52:04;;;;;;;0.25;0.25;;;11.90;64.60;;;;;;4904870;29;20079;-86
2023/01/19 10:54:31;;;;;;;0.20;0.20;;;12.20;63.20;;;;;;4903731;29;20086;-89
2023/01/19 10:57:01;;;;;;;0.20;0.20;;;12.20;63.80;;;;;;4903393;29;20028;-89
2023/01/19 10:59:35;;;;;;;0.20;0.20;;;12.30;63.70;;;;;;4903830;29;20039;-89
2023/01/19 11:02:27;;;;;;;0.20;0.20;;;12.50;63.20;;;;;;4903558;29;20086;-89
2023/01/19 11:05:23;;;;;;;0.20;0.20;;;12.80;62.40;;;;;;4903320;29;20079;-87
2023/01/19 11:07:49;;;;;;;0.20;0.20;;;13.10;62.00;;;;;;4903637;29;20439;-86
2023/01/19 11:10:14;;;;;;;0.40;0.40;;;13.30;61.20;;;;;;4903235;29;20025;-86
2023/01/19 11:12:46;;;;;;;0.30;0.30;;;13.30;60.70;;;;;;4903489;29;20027;-90
2023/01/19 11:15:20;;;;;;;0.30;0.30;;;12.80;61.90;;;;;;4227850;29;10000682;-90
2023/01/19 11:17:47;;;;;;;0.20;0.20;;;12.90;62.20;;;;;;4902820;29;20110;-89
2023/01/19 11:20:28;;;;;;;0.20;0.20;;;12.70;61.80;;;;;;4895176;29;20024;-89
2023/01/19 11:23:18;;;;;;;0.28;0.28;;;12.50;62.70;;;;;;4903734;29;20016;-89
2023/01/19 11:25:47;;;;;;;0.30;0.30;;;12.50;62.90;;;;;;4902997;29;20028;-86
2023/01/19 11:28:46;;;;;;;0.20;0.20;;;12.90;61.40;;;;;;4902876;29;20026;-88
2023/01/19 11:31:16;;;;;;;0.32;0.32;;;13.00;61.00;;;;;;4881434;29;20032;-88
2023/01/19 11:33:51;;;;;;;0.22;0.22;;;13.10;60.90;;;;;;4904029;29;20102;-89
2023/01/19 11:36:20;;;;;;;0.20;0.20;;;13.10;61.40;;;;;;4902907;29;20171;-89
2023/01/19 11:38:54;;;;;;;0.20;0.20;;;13.20;61.50;;;;;;4902480;29;20036;-88
2023/01/19 11:41:25;;;;;;;0.20;0.20;;;13.10;61.00;;;;;;4902444;29;20099;-87
2023/01/19 11:43:52;;;;;;;;;;;13.00;61.50;;;;;;4903295;29;20028;-96
2023/01/19 11:46:18;;;;;;;0.20;0.20;;;13.10;61.40;;;;;;4902339;29;19930;-88
2023/01/19 11:49:06;;;;;;;0.20;0.20;;;12.90;61.80;;;;;;4902488;29;20187;-87
2023/01/19 11:52:02;;;;;;;0.20;0.20;;;13.10;61.60;;;;;;4902436;29;20027;-88
2023/01/19 11:54:34;;;;;;;0.30;0.30;;;13.10;61.00;;;;;;4902521;29;20123;-88
2023/01/19 11:57:01;;;;;;;0.20;0.20;;;12.90;61.70;;;;;;4900912;29;20488;-89
2023/01/19 11:59:28;;;;;;;0.20;0.20;;;13.10;61.50;;;;;;4902544;29;20127;-87
2023/01/19 12:02:17;;;;;;;0.30;0.30;;;13.10;61.00;;;;;;4902501;29;20020;-89
2023/01/19 12:04:46;;;;;;;0.30;0.30;;;13.20;61.20;;;;;;4903258;29;20016;-88
2023/01/19 12:07:17;;;;;;;0.30;0.30;;;12.80;62.20;;;;;;4902081;29;20083;-88
2023/01/19 12:09:50;;;;;;;0.40;0.40;;;13.10;61.80;;;;;;4901364;29;20531;-88
2023/01/19 12:12:29;;;;;;;0.20;0.20;;;13.40;60.60;;;;;;4902244;29;20050;-88
2023/01/19 12:15:04;;;;;;;0.20;0.20;;;13.40;60.90;;;;;;4902012;29;20020;-88
2023/01/19 12:17:35;;;;;;;0.25;0.25;;;13.10;61.10;;;;;;4901812;29;20131;-87
2023/01/19 12:20:19;;;;;;;0.20;0.20;;;13.10;61.40;;;;;;4901809;29;20032;-88
2023/01/19 12:22:54;;;;;;;0.20;0.20;;;12.70;61.70;;;;;;4901823;29;20024;-88
2023/01/19 12:25:44;;;;;;;0.22;0.22;;;12.70;61.30;;;;;;4903184;29;20460;-88
2023/01/19 12:28:12;;;;;;;;;;;12.20;63.50;;;;;;4902470;29;20024;-87
2023/01/19 12:30:38;;;;;;;0.20;0.20;;;12.10;63.50;;;;;;4901684;29;20021;-88
2023/01/19 12:33:27;;;;;;;0.30;0.30;;;12.10;64.20;;;;;;4901661;29;20035;-88
2023/01/19 12:35:56;;;;;;;0.20;0.20;;;12.50;63.20;;;;;;4893429;29;20486;-88
2023/01/19 12:38:45;;;;;;;0.30;0.30;;;12.80;62.80;;;;;;4901688;29;20047;-87
2023/01/19 12:41:31;;;;;;;0.20;0.20;;;12.70;62.30;;;;;;4901911;29;20028;-88
2023/01/19 12:44:10;;;;;;;0.20;0.20;;;12.70;62.90;;;;;;4902310;29;20030;-88
2023/01/19 12:47:04;;;;;;;0.25;0.25;;;12.90;62.30;;;;;;4901421;29;20035;-88
2023/01/19 12:49:45;;;;;;;0.20;0.20;;;13.10;61.90;;;;;;4901762;29;20024;-88
2023/01/19 12:52:23;;;;;;;0.32;0.32;;;12.70;62.80;;;;;;4901501;29;20030;-87
2023/01/19 12:55:12;;;;;;;0.20;0.20;;;12.80;62.70;;;;;;4901235;29;20035;-88
2023/01/19 12:57:47;;;;;;;0.20;0.20;;;12.80;62.50;;;;;;4893485;29;20052;-86
2023/01/19 13:00:22;;;;;;;0.30;0.30;;;12.80;62.30;;;;;;4891836;29;20028;-86
2023/01/19 13:02:49;;;;;;;0.20;0.20;;;12.60;62.60;;;;;;4898120;29;20053;-87
2023/01/19 13:05:20;;;;;;;0.20;0.20;;;12.60;62.70;;;;;;4902201;29;20023;-87
2023/01/19 13:08:01;;;;;;;0.20;0.20;;;12.40;63.30;;;;;;4901419;29;20046;-88
2023/01/19 13:10:52;;;;;;;0.25;0.25;;;12.50;63.30;;;;;;4901160;29;20115;-86
2023/01/19 13:13:21;;;;;;;;;;;12.50;62.70;;;;;;4901308;29;20114;-88
2023/01/19 13:15:47;;;;;;;0.20;0.20;;;12.50;63.90;;;;;;4902184;29;20295;-87
2023/01/19 13:18:28;;;;;;;0.28;0.28;;;12.80;62.70;;;;;;4901307;29;20555;-87
2023/01/19 13:21:02;;;;;;;0.40;0.40;;;13.00;62.00;;;;;;4900940;29;20056;-85
2023/01/19 13:23:51;;;;;;;0.20;0.20;;;12.90;61.50;;;;;;4901552;29;20028;-89
2023/01/19 13:26:22;;;;;;;0.28;0.28;;;12.60;62.70;;;;;;4844289;29;20029;-87
2023/01/19 13:28:54;;;;;;;0.20;0.20;;;12.60;62.80;;;;;;4844864;29;20044;-87
2023/01/19 13:31:20;;;;;;;0.20;0.20;;;12.50;63.20;;;;;;4844738;29;20376;-88
2023/01/19 13:33:53;;;;;;;0.30;0.30;;;12.20;63.70;;;;;;4843888;29;20112;-88
2023/01/19 13:36:27;;;;;;;0.38;0.38;;;12.20;63.60;;;;;;4844555;29;20080;-87
2023/01/19 13:38:55;;;;;;;0.30;0.30;;;12.10;63.40;;;;;;4844033;29;20040;-86
2023/01/19 13:41:24;;;;;;;0.20;0.20;;;12.20;63.50;;;;;;4843936;29;20025;-88
2023/01/19 13:44:17;;;;;;;0.30;0.30;;;12.10;63.60;;;;;;4844300;29;20501;-88
2023/01/19 13:46:44;;;;;;;0.30;0.30;;;12.20;63.70;;;;;;4815616;29;20046;-91
2023/01/19 13:49:37;;;;;;;0.20;0.20;;;12.00;64.40;;;;;;4818067;29;20044;-96
2023/01/19 13:52:11;;;;;;;0.25;0.25;;;12.20;63.80;;;;;;4814836;29;20035;-96
2023/01/19 13:54:51;;;;;;;0.30;0.30;;;12.10;64.10;;;;;;4834769;29;20030;-96
2023/01/19 13:57:40;;;;;;;0.30;0.30;;;12.00;63.60;;;;;;4817253;29;20045;-90
2023/01/19 14:00:21;;;;;;;0.40;0.40;;;11.70;64.10;;;;;;4825196;29;20379;-87
2023/01/19 14:03:22;;;;;;;0.30;0.30;;;11.60;64.70;;;;;;4818921;29;20037;-88
2023/01/19 14:05:52;;;;;;;0.20;0.20;;;11.50;66.10;;;;;;4857976;29;20439;-87
2023/01/19 14:08:18;;;;;;;0.28;0.28;;;11.60;64.60;;;;;;4859729;29;20026;-87
2023/01/19 14:11:05;;;;;;;0.20;0.20;;;11.50;65.40;;;;;;4859274;29;20093;-88
2023/01/19 14:13:33;;;;;;;0.30;0.30;;;11.50;66.30;;;;;;4843986;29;20040;-87
2023/01/19 14:16:19;;;;;;;0.30;0.30;;;11.40;65.70;;;;;;4859546;29;20113;-88
2023/01/19 14:18:45;;;;;;;0.30;0.30;;;11.50;66.10;;;;;;4844024;29;20048;-87
2023/01/19 14:21:13;;;;;;;0.30;0.30;;;11.40;66.00;;;;;;4859495;29;20021;-87
2023/01/19 14:23:53;;;;;;;0.30;0.30;;;11.20;65.80;;;;;;4887428;29;20387;-87
2023/01/19 14:26:37;;;;;;;0.30;0.30;;;11.20;66.50;;;;;;4900298;29;20027;-87
2023/01/19 14:29:27;;;;;;;0.20;0.20;;;11.00;66.90;;;;;;4900892;29;20024;-91
2023/01/19 14:31:59;;;;;;;0.20;0.20;;;11.20;66.30;;;;;;4893706;29;20058;-87
2023/01/19 14:34:47;;;;;;;0.28;0.28;;;11.20;66.00;;;;;;4902589;29;20088;-89
2023/01/19 14:37:23;;;;;;;0.30;0.30;;;11.10;66.20;;;;;;4903613;29;20024;-86
2023/01/19 14:40:13;;;;;;;0.20;0.20;;;11.10;65.80;;;;;;4903703;29;20111;-87
2023/01/19 14:42:58;;;;;;;0.30;0.30;;;10.90;66.00;;;;;;4903597;29;20032;-88
2023/01/19 14:45:40;;;;;;;0.25;0.25;;;10.80;66.60;;;;;;4903614;29;20110;-88
2023/01/19 14:48:18;;;;;;;0.38;0.38;;;10.70;66.50;;;;;;4903431;29;20085;-86
2023/01/19 14:50:47;;;;;;;0.30;0.30;;;10.60;67.00;;;;;;4903653;29;20033;-87
2023/01/19 14:53:20;;;;;;;0.30;0.30;;;10.60;66.20;;;;;;4903564;29;20440;-87
2023/01/19 14:55:49;;;;;;;0.20;0.20;;;10.60;66.60;;;;;;4903644;29;20024;-86
2023/01/19 14:58:19;;;;;;;0.22;0.22;;;10.20;67.00;;;;;;4903517;29;20028;-93
2023/01/19 15:00:47;;;;;;;0.25;0.25;;;10.10;67.60;;;;;;4904157;29;20024;-85
2023/01/19 15:03:13;;;;;;;0.30;0.30;;;10.00;67.70;;;;;;4903787;29;20032;-87
2023/01/19 15:05:41;;;;;;;0.30;0.30;;;9.90;68.40;;;;;;4903168;29;20099;-85
2023/01/19 15:08:11;;;;;;;0.20;0.20;;;10.00;68.00;;;;;;4903612;29;20337;-88
2023/01/19 15:10:37;;;;;;;0.38;0.38;;;9.90;67.60;;;;;;4903259;29;20024;-83
2023/01/19 15:13:03;;;;;;;0.30;0.30;;;9.70;67.70;;;;;;4903745;29;20028;-86
2023/01/19 15:15:33;;;;;;;0.30;0.30;;;9.60;68.40;;;;;;4903422;29;20028;-87
2023/01/19 15:18:01;;;;;;;0.30;0.30;;;9.50;69.30;;;;;;4902477;29;20044;-86
2023/01/19 15:20:27;;;;;;;0.25;0.25;;;9.70;68.20;;;;;;4903027;29;20106;-88
2023/01/19 15:22:53;;;;;;;0.30;0.30;;;9.70;68.60;;;;;;4903471;29;20371;-86
2023/01/19 15:25:26;;;;;;;0.20;0.20;;;9.90;68.20;;;;;;4919842;29;20024;-86
2023/01/19 15:27:55;;;;;;;0.28;0.28;;;9.90;66.70;;;;;;4903198;29;20421;-95
2023/01/19 15:30:26;;;;;;;0.25;0.25;;;9.70;67.40;;;;;;4903373;29;20126;-87
2023/01/19 15:32:52;;;;;;;0.30;0.30;;;9.90;67.30;;;;;;4902821;29;20028;-88
2023/01/19 15:35:22;;;;;;;0.30;0.30;;;9.90;66.90;;;;;;4902777;29;20456;-86
2023/01/19 15:37:50;;;;;;;0.30;0.30;;;10.00;67.20;;;;;;4902663;29;20028;-87
2023/01/19 15:40:18;;;;;;;0.20;0.20;;;10.00;66.60;;;;;;4902327;29;20035;-86
2023/01/19 15:42:44;;;;;;;0.25;0.25;;;10.00;67.40;;;;;;4902587;29;20020;-88
2023/01/19 15:45:37;;;;;;;0.30;0.30;;;9.90;67.00;;;;;;4902265;29;20032;-87
2023/01/19 15:48:21;;;;;;;0.20;0.20;;;10.00;66.80;;;;;;4903582;29;20411;-88
2023/01/19 15:50:47;;;;;;;0.20;0.20;;;9.90;67.50;;;;;;4902171;29;20518;-88
2023/01/19 15:53:15;;;;;;;0.40;0.40;;;9.90;66.80;;;;;;4902632;29;20035;-88
2023/01/19 15:55:41;;;;;;;0.30;0.30;;;9.70;67.20;;;;;;4902235;29;20115;-87
2023/01/19 15:58:07;;;;;;;0.30;0.30;;;9.60;68.10;;;;;;4902248;29;20372;-86
2023/01/19 16:00:34;;;;;;;0.30;0.30;;;9.90;67.40;;;;;;4902407;29;20028;-87
2023/01/19 16:03:01;;;;;;;0.30;0.30;;;9.90;67.30;;;;;;4901931;29;20055;-88
2023/01/19 16:05:27;;;;;;;0.30;0.30;;;10.00;66.80;;;;;;4901819;29;20031;-88
2023/01/19 16:07:53;;;;;;;0.40;0.40;;;10.20;66.40;;;;;;4902530;29;20028;-87
2023/01/19 16:10:19;;;;;;;0.20;0.20;;;9.90;66.30;;;;;;4901994;29;20071;-87
2023/01/19 16:12:49;;;;;;;0.28;0.28;;;9.80;66.80;;;;;;4901845;29;20024;-87
2023/01/19 16:15:15;;;;;;;;;;;9.90;66.30;;;;;;4902633;29;20020;-89
2023/01/19 16:17:41;;;;;;;0.20;0.20;;;10.10;67.00;;;;;;4901782;29;19915;-88
2023/01/19 16:20:07;;;;;;;0.30;0.30;;;10.40;65.50;;;;;;4901908;29;20082;-89
2023/01/19 16:22:33;;;;;;;0.20;0.20;;;10.50;65.40;;;;;;4901868;29;20020;-88
2023/01/19 16:24:59;;;;;;;0.30;0.30;;;10.40;64.90;;;;;;4901819;29;20080;-87
2023/01/19 16:27:25;;;;;;;0.20;0.20;;;10.20;65.40;;;;;;4901704;29;20460;-87
2023/01/19 16:29:51;;;;;;;0.25;0.25;;;10.40;65.10;;;;;;4901792;29;20051;-87
2023/01/19 16:32:18;;;;;;;0.30;0.30;;;10.00;65.50;;;;;;4901763;29;20024;-84
2023/01/19 16:34:44;;;;;;;0.20;0.20;;;9.70;66.70;;;;;;4901705;29;20027;-86
2023/01/19 16:37:09;;;;;;;0.30;0.30;;;9.40;66.80;;;;;;4901296;29;20028;-83
2023/01/19 16:39:35;;;;;;;0.20;0.20;;;9.60;67.30;;;;;;4918852;29;20348;-86
2023/01/19 16:42:01;;;;;;;0.30;0.30;;;9.70;67.90;;;;;;4901339;29;20020;-88
2023/01/19 16:44:27;;;;;;;0.30;0.30;;;9.80;66.50;;;;;;4901608;29;20428;-84
2023/01/19 16:46:53;;;;;;;0.30;0.30;;;9.80;66.20;;;;;;4901820;29;20080;-86
2023/01/19 16:49:24;;;;;;;0.25;0.25;;;9.90;66.80;;;;;;4901270;29;20467;-87
2023/01/19 16:51:52;;;;;;;0.30;0.30;;;9.70;65.90;;;;;;4901529;29;20023;-86
2023/01/19 16:54:24;;;;;;;0.20;0.20;;;9.40;67.90;;;;;;4901237;29;20490;-85
2023/01/19 16:56:50;;;;;;;0.30;0.30;;;9.80;67.20;;;;;;4900660;29;20047;-86
2023/01/19 16:59:17;;;;;;;0.30;0.30;;;9.90;66.80;;;;;;4901890;29;20122;-85
2023/01/19 17:01:43;;;;;;;0.30;0.30;;;9.70;66.90;;;;;;4904761;29;20027;-96
2023/01/19 17:04:10;;;;;;;0.20;0.20;;;9.50;67.50;;;;;;4909291;29;20028;-94
2023/01/19 17:06:36;;;;;;;0.30;0.30;;;9.30;67.90;;;;;;4907045;29;20031;-93
2023/01/19 17:09:02;;;;;;;0.32;0.32;;;9.20;68.80;;;;;;4906953;29;20020;-95
2023/01/19 17:11:31;;;;;;;0.30;0.30;;;9.20;68.30;;;;;;4905772;29;20083;-96
2023/01/19 17:14:07;;;;;;;0.30;0.30;;;9.10;68.00;;;;;;4910401;29;20059;-96
2023/01/19 17:16:34;;;;;;;0.30;0.30;;;9.30;68.20;;;;;;4907434;29;20036;-85
2023/01/19 17:19:03;;;;;;;0.30;0.30;;;9.60;66.60;;;;;;4900522;29;20035;-87
2023/01/19 17:21:28;;;;;;;0.32;0.32;;;9.60;67.10;;;;;;4900952;29;20490;-83
2023/01/19 17:23:56;;;;;;;0.30;0.30;;;9.60;66.60;;;;;;4900734;29;20024;-85
2023/01/19 17:26:27;;;;;;;0.30;0.30;;;9.20;67.50;;;;;;4901154;29;20020;-86
2023/01/19 17:29:01;;;;;;;0.30;0.30;;;9.30;66.80;;;;;;4901140;29;20024;-85
2023/01/19 17:31:28;;;;;;;0.30;0.30;;;9.40;67.50;;;;;;4901948;29;20032;-86
2023/01/19 17:33:54;;;;;;;0.30;0.30;;;9.30;66.80;;;;;;4900659;29;20024;-86
2023/01/19 17:36:23;;;;;;;0.30;0.30;;;9.30;67.60;;;;;;4900844;29;20114;-83
2023/01/19 17:38:50;;;;;;;0.30;0.30;;;9.00;67.10;;;;;;4900862;29;20087;-86
2023/01/19 17:41:17;;;;;;;0.30;0.30;;;8.70;68.20;;;;;;4900936;29;20032;-88
2023/01/19 17:43:43;;;;;;;0.20;0.20;;;8.90;68.20;;;;;;4900917;29;20124;-86
2023/01/19 17:46:09;;;;;;;0.20;0.20;;;8.90;67.90;;;;;;4901641;29;20064;-95
2023/01/19 17:48:35;;;;;;;0.30;0.30;;;8.80;68.10;;;;;;4905578;29;20054;-89
2023/01/19 17:51:06;;;;;;;0.20;0.20;;;8.90;67.80;;;;;;4903562;29;20020;-92
2023/01/19 17:53:39;;;;;;;0.30;0.30;;;8.70;68.40;;;;;;4903726;29;20056;-95
2023/01/19 17:56:10;;;;;;;0.30;0.30;;;8.70;68.60;;;;;;4903847;29;20016;-92
2023/01/19 17:58:36;;;;;;;0.30;0.30;;;8.70;68.40;;;;;;4904302;29;20535;-93
2023/01/19 18:01:17;;;;;;;0.30;0.30;;;8.70;68.00;;;;;;4904681;29;20020;-88
2023/01/19 18:03:43;;;;;;;0.30;0.30;;;8.80;68.10;;;;;;4900623;29;20027;-86
2023/01/19 18:06:09;;;;;;;0.30;0.30;;;9.00;67.80;;;;;;4900526;29;20020;-87
2023/01/19 18:08:43;;;;;;;0.30;0.30;;;9.10;67.40;;;;;;4903447;29;20044;-88
2023/01/19 18:11:10;;;;;;;0.30;0.30;;;9.40;67.60;;;;;;4905242;29;20107;-86
2023/01/19 18:13:38;;;;;;;0.30;0.30;;;9.60;66.00;;;;;;4904285;29;20036;-87
2023/01/19 18:16:07;;;;;;;0.20;0.20;;;9.50;65.80;;;;;;4904065;29;20533;-87
2023/01/19 18:18:34;;;;;;;0.30;0.30;;;9.40;66.00;;;;;;4904181;29;20054;-88
2023/01/19 18:21:02;;;;;;;0.30;0.30;;;9.00;67.10;;;;;;4904261;29;20024;-82
2023/01/19 18:23:28;;;;;;;0.25;0.25;;;9.10;66.70;;;;;;4903942;29;20028;-88
2023/01/19 18:26:09;;;;;;;0.30;0.30;;;8.90;67.00;;;;;;4903831;29;20408;-89
2023/01/19 18:28:36;;;;;;;0.25;0.25;;;8.80;68.40;;;;;;4904319;29;20096;-86
2023/01/19 18:31:05;;;;;;;0.30;0.30;;;8.60;68.20;;;;;;4904009;29;20024;-90
2023/01/19 18:33:32;;;;;;;0.30;0.30;;;8.50;68.10;;;;;;4903821;29;20032;-86
2023/01/19 18:35:58;;;;;;;0.30;0.30;;;8.50;69.20;;;;;;4903635;29;20059;-88
2023/01/19 18:38:24;;;;;;;0.30;0.30;;;8.70;68.50;;;;;;4903656;29;20032;-86
2023/01/19 18:41:03;;;;;;;0.30;0.30;;;8.70;67.60;;;;;;4903558;29;20363;-88
2023/01/19 18:43:29;;;;;;;0.30;0.30;;;8.50;69.30;;;;;;4903797;29;20038;-87
2023/01/19 18:46:16;;;;;;;0.22;0.22;;;8.60;67.90;;;;;;4844279;29;20473;-92
2023/01/19 18:48:42;;;;;;;0.30;0.30;;;8.50;68.70;;;;;;4828743;29;20136;-89
2023/01/19 18:51:11;;;;;;;0.30;0.30;;;8.60;68.60;;;;;;4829020;29;20034;-90
2023/01/19 18:53:37;;;;;;;0.30;0.30;;;9.00;68.00;;;;;;4828581;29;20034;-87
2023/01/19 18:56:03;;;;;;;0.30;0.30;;;9.20;66.40;;;;;;4828444;29;20026;-88
2023/01/19 18:58:31;;;;;;;0.25;0.25;;;9.20;66.80;;;;;;4828259;29;20042;-88
2023/01/19 19:00:58;;;;;;;0.20;0.20;;;9.10;66.70;;;;;;4828479;29;20018;-87
2023/01/19 19:03:25;;;;;;;0.30;0.30;;;8.90;67.30;;;;;;4831509;29;20205;-92
2023/01/19 19:05:50;;;;;;;0.30;0.30;;;9.10;67.30;;;;;;4832097;29;20403;-96
2023/01/19 19:08:17;;;;;;;0.30;0.30;;;9.30;66.00;;;;;;4832000;29;20042;-94